Luna, Arkansas
Current Conditions -  °F | °C
As of 5:53 AM on Saturday 20 Dec 2014 (Local Time) from KGLH Reporting Station
Haze Haze  
Wind Chill: 33°   Ceiling: Unl
Heat Index: 38°   Visibility: 6mi
Dew Point: 35°   Wind: 7mph
Humidity: 89%   Direction: 10°N
Pressure: 30.23"   Gusts: NA
Location:  33.3324°N, 91.3183°W
Report Text: KGLH 201153Z AUTO 01006KT 6SM BR CLR 03/02 A3023 RMK AO2 SLP244 T00330017 10072 20033 53008
Loading
Personal Weather Stations






























Interactive Weather Map New forecast layout! Learn more

10-Day Weather Forecast

Advertisements
Track Severe Weather on mobile